Time;durP1;ratioP1;P1;durP2;ratioP2;P2;SDS_P1;SDS_P2;PMS_P1;PMS_P2;Temp;Humidity;BMP_temperature;BMP_pressure;BME280_temperature;BME280_humidity;BME280_pressure;Samples;Min_cycle;Max_cycle;Signal;HPM_P1;HPM_P2
2021/10/31 00:02:02;;;;;;;16.10;9.57;;;12.00;99.90;;;;;;5005836;28;20179;-72
2021/10/31 00:04:28;;;;;;;12.07;9.10;;;12.00;99.90;;;;;;5002495;28;20183;-72
2021/10/31 00:06:54;;;;;;;10.30;9.20;;;12.00;99.90;;;;;;5006370;28;20191;-72
2021/10/31 00:09:19;;;;;;;10.50;8.60;;;12.00;99.90;;;;;;5008518;28;20236;-72
2021/10/31 00:11:45;;;;;;;10.73;8.10;;;12.00;99.90;;;;;;5001277;28;20170;-72
2021/10/31 00:14:11;;;;;;;13.80;10.30;;;12.00;99.90;;;;;;4998615;28;20609;-72
2021/10/31 00:16:37;;;;;;;10.90;8.80;;;12.00;99.90;;;;;;5006184;28;20183;-72
2021/10/31 00:19:03;;;;;;;11.07;9.97;;;12.00;99.90;;;;;;5004757;28;20248;-71
2021/10/31 00:21:28;;;;;;;12.33;9.80;;;11.90;99.90;;;;;;5006267;28;20206;-71
2021/10/31 00:23:54;;;;;;;12.40;9.53;;;11.90;99.90;;;;;;5004072;28;20747;-71
2021/10/31 00:26:21;;;;;;;12.23;9.53;;;11.90;99.90;;;;;;5007893;28;20612;-71
2021/10/31 00:28:46;;;;;;;13.03;10.00;;;11.90;99.90;;;;;;5001718;28;20175;-71
2021/10/31 00:31:12;;;;;;;14.67;11.23;;;11.90;99.90;;;;;;5001938;28;20444;-71
2021/10/31 00:33:38;;;;;;;12.30;10.23;;;11.90;99.90;;;;;;5008330;28;20235;-71
2021/10/31 00:36:04;;;;;;;13.60;9.83;;;11.90;99.90;;;;;;5006460;28;20754;-71
2021/10/31 00:38:30;;;;;;;11.10;9.07;;;11.90;99.90;;;;;;5000213;28;20429;-71
2021/10/31 00:40:56;;;;;;;10.90;8.80;;;11.90;99.90;;;;;;5000771;28;20496;-71
2021/10/31 00:43:22;;;;;;;11.17;9.83;;;11.90;99.90;;;;;;4999203;28;20182;-71
2021/10/31 00:45:49;;;;;;;10.97;9.77;;;11.90;99.90;;;;;;5004485;28;20433;-71
2021/10/31 00:48:15;;;;;;;11.00;8.60;;;11.90;99.90;;;;;;5000577;28;20285;-71
2021/10/31 00:50:42;;;;;;;11.30;9.17;;;11.90;99.90;;;;;;4998387;28;20904;-71
2021/10/31 00:53:08;;;;;;;10.23;9.17;;;11.90;99.90;;;;;;5006770;28;20441;-71
2021/10/31 00:55:35;;;;;;;10.80;9.43;;;11.90;99.90;;;;;;5003577;28;21177;-72
2021/10/31 00:58:01;;;;;;;13.50;9.10;;;11.90;99.90;;;;;;5006463;28;20178;-71
2021/10/31 01:00:27;;;;;;;11.47;10.27;;;12.00;99.90;;;;;;5004046;28;20465;-71
2021/10/31 01:02:53;;;;;;;12.90;9.77;;;12.00;99.90;;;;;;5005658;28;20430;-71
2021/10/31 01:05:26;;;;;;;15.33;10.57;;;12.00;99.90;;;;;;5002991;28;20435;-77
2021/10/31 01:07:57;;;;;;;9.70;8.70;;;12.00;99.90;;;;;;5002419;28;20257;-77
2021/10/31 01:10:54;;;;;;;13.53;9.13;;;12.00;99.90;;;;;;5005947;28;20426;-77
2021/10/31 01:13:25;;;;;;;11.77;10.10;;;12.00;99.90;;;;;;5012766;28;20748;-77
2021/10/31 01:16:23;;;;;;;12.50;10.07;;;12.00;99.90;;;;;;5006704;28;20425;-74
2021/10/31 01:19:36;;;;;;;13.83;10.60;;;12.00;99.90;;;;;;5003650;28;20988;-73
2021/10/31 01:22:23;;;;;;;13.07;10.00;;;12.10;99.90;;;;;;4985786;28;20444;-74
2021/10/31 01:25:20;;;;;;;13.63;10.23;;;12.10;99.90;;;;;;5007101;28;20604;-74
2021/10/31 01:27:54;;;;;;;12.13;9.70;;;12.10;99.90;;;;;;5003278;28;20422;-74
2021/10/31 01:30:38;;;;;;;13.37;11.60;;;12.10;99.90;;;;;;5006687;28;20491;-73
2021/10/31 01:33:23;;;;;;;13.53;11.23;;;12.10;99.90;;;;;;5007043;28;20429;-74
2021/10/31 01:35:53;;;;;;;13.80;9.90;;;12.10;99.90;;;;;;5005792;28;20491;-75
2021/10/31 01:38:45;;;;;;;14.63;11.20;;;12.10;99.90;;;;;;5005199;28;20433;-75
2021/10/31 01:41:40;;;;;;;14.17;10.97;;;12.10;99.90;;;;;;5007624;28;20469;-75
2021/10/31 01:44:20;;;;;;;14.77;11.90;;;12.10;99.90;;;;;;5002034;28;20455;-75
2021/10/31 01:47:06;;;;;;;17.33;12.20;;;12.10;99.90;;;;;;5005563;28;20472;-75
2021/10/31 01:49:59;;;;;;;15.63;12.00;;;12.00;99.90;;;;;;5004145;28;20473;-75
2021/10/31 01:52:32;;;;;;;17.33;12.43;;;12.00;99.90;;;;;;5003421;28;20445;-75
2021/10/31 01:55:05;;;;;;;14.93;12.67;;;12.00;99.90;;;;;;5007072;28;20422;-75
2021/10/31 01:57:33;;;;;;;16.67;13.40;;;12.10;99.90;;;;;;4999949;28;20430;-75
2021/10/31 02:00:07;;;;;;;16.40;13.10;;;12.00;99.90;;;;;;5009442;28;20538;-75
2021/10/31 02:02:37;;;;;;;18.40;13.27;;;12.00;99.90;;;;;;5003627;28;20439;-75
2021/10/31 02:05:05;;;;;;;19.50;13.70;;;12.00;99.90;;;;;;5006118;28;20429;-75
2021/10/31 02:07:32;;;;;;;20.03;15.20;;;11.90;99.90;;;;;;5006821;28;20440;-75
2021/10/31 02:10:00;;;;;;;18.30;14.60;;;12.00;99.90;;;;;;5008840;28;20467;-75
2021/10/31 02:12:27;;;;;;;16.30;12.90;;;12.00;99.90;;;;;;5005426;28;20434;-75
2021/10/31 02:14:54;;;;;;;17.30;13.40;;;12.00;99.90;;;;;;5009699;28;20440;-75
2021/10/31 02:17:20;;;;;;;20.50;14.00;;;12.00;99.90;;;;;;5006339;28;20465;-75
2021/10/31 02:19:47;;;;;;;18.80;13.47;;;11.90;99.90;;;;;;5006818;28;20467;-71
2021/10/31 02:22:23;;;;;;;22.83;14.70;;;11.90;99.90;;;;;;5010761;28;20437;-71
2021/10/31 02:24:49;;;;;;;16.03;13.03;;;11.80;99.90;;;;;;5011007;28;20517;-71
2021/10/31 02:27:20;;;;;;;20.07;14.00;;;11.80;99.90;;;;;;5006178;28;20529;-71
2021/10/31 02:29:49;;;;;;;17.53;13.80;;;11.90;99.90;;;;;;5004512;28;20187;-71
2021/10/31 02:32:15;;;;;;;14.93;12.10;;;11.80;99.90;;;;;;5006534;28;20449;-71
2021/10/31 02:34:41;;;;;;;17.73;13.53;;;11.90;99.90;;;;;;5007498;28;20811;-71
2021/10/31 02:37:07;;;;;;;17.27;12.70;;;11.80;99.90;;;;;;5006265;28;20444;-71
2021/10/31 02:39:32;;;;;;;14.00;11.87;;;11.80;99.90;;;;;;5014183;28;20186;-71
2021/10/31 02:41:58;;;;;;;17.17;13.97;;;11.90;99.90;;;;;;5007339;28;20229;-71
2021/10/31 02:44:24;;;;;;;16.97;12.33;;;11.80;99.90;;;;;;5012561;28;20226;-71
2021/10/31 02:46:49;;;;;;;19.40;13.00;;;11.80;99.90;;;;;;5009616;28;20175;-71
2021/10/31 02:49:15;;;;;;;18.07;13.50;;;11.80;99.90;;;;;;5010026;28;20588;-71
2021/10/31 02:51:47;;;;;;;14.73;12.47;;;11.90;99.90;;;;;;5005372;28;20189;-71
2021/10/31 02:54:29;;;;;;;18.87;13.50;;;11.90;99.90;;;;;;5009924;28;20190;-71
2021/10/31 02:57:08;;;;;;;20.60;13.90;;;11.90;99.90;;;;;;5006970;28;20445;-71
2021/10/31 03:00:00;;;;;;;14.90;12.10;;;11.90;99.90;;;;;;5004893;28;20431;-71
2021/10/31 03:02:28;;;;;;;13.87;11.03;;;11.90;99.90;;;;;;5005515;28;20466;-71
2021/10/31 03:04:54;;;;;;;15.17;11.80;;;11.90;99.90;;;;;;5010952;28;20696;-71
2021/10/31 03:07:22;;;;;;;18.10;14.60;;;11.90;99.90;;;;;;5009520;28;20448;-71
2021/10/31 03:09:48;;;;;;;19.87;13.60;;;11.90;99.90;;;;;;5010495;28;20437;-71
2021/10/31 03:12:16;;;;;;;15.40;12.00;;;11.90;99.90;;;;;;5006164;28;20507;-71
2021/10/31 03:14:42;;;;;;;13.73;12.23;;;11.90;99.90;;;;;;5009507;28;20448;-71
2021/10/31 03:17:08;;;;;;;11.87;10.37;;;11.90;99.90;;;;;;5003587;28;20445;-71
2021/10/31 03:19:36;;;;;;;14.47;12.13;;;11.90;99.90;;;;;;5011474;28;20214;-71
2021/10/31 03:22:03;;;;;;;16.57;13.90;;;11.80;99.90;;;;;;5003923;28;20227;-72
2021/10/31 03:24:28;;;;;;;15.87;13.00;;;11.90;99.90;;;;;;5011784;28;20433;-72
2021/10/31 03:26:54;;;;;;;15.83;12.87;;;11.90;99.90;;;;;;5007928;28;20428;-72
2021/10/31 03:29:22;;;;;;;13.93;11.50;;;11.80;99.90;;;;;;5007864;28;20185;-72
2021/10/31 03:31:48;;;;;;;17.27;12.27;;;11.90;99.90;;;;;;5007242;28;20236;-72
2021/10/31 03:34:14;;;;;;;15.13;13.20;;;11.90;99.90;;;;;;5008717;28;20531;-71
2021/10/31 03:36:40;;;;;;;16.07;12.53;;;11.90;99.90;;;;;;5006208;28;20832;-72
2021/10/31 03:39:07;;;;;;;17.90;14.30;;;11.90;99.90;;;;;;5002687;28;20545;-72
2021/10/31 03:41:32;;;;;;;16.50;13.07;;;11.90;99.90;;;;;;5009149;28;20294;-72
2021/10/31 03:43:58;;;;;;;16.97;13.57;;;11.90;99.90;;;;;;5008032;28;20528;-71
2021/10/31 03:46:24;;;;;;;15.87;13.43;;;12.00;99.90;;;;;;5007706;28;20683;-71
2021/10/31 03:48:50;;;;;;;18.10;14.27;;;12.00;99.90;;;;;;5006715;28;20572;-71
2021/10/31 03:51:15;;;;;;;16.23;13.47;;;12.00;99.90;;;;;;5006621;28;20183;-72
2021/10/31 03:53:41;;;;;;;18.30;14.20;;;12.00;99.90;;;;;;5008006;28;20182;-72
2021/10/31 03:56:07;;;;;;;15.10;11.70;;;12.00;99.90;;;;;;5007531;28;20226;-72
2021/10/31 03:58:32;;;;;;;14.70;12.53;;;12.00;99.90;;;;;;5004049;28;20179;-72
2021/10/31 04:01:00;;;;;;;17.60;12.03;;;12.00;99.90;;;;;;5007118;28;20245;-72
2021/10/31 04:03:26;;;;;;;14.30;12.20;;;12.00;99.90;;;;;;5008716;28;20187;-72
2021/10/31 04:05:52;;;;;;;15.83;12.87;;;12.10;99.90;;;;;;5003749;28;20436;-73
2021/10/31 04:08:18;;;;;;;15.17;12.20;;;12.00;99.90;;;;;;4998645;28;20437;-72
2021/10/31 04:10:43;;;;;;;19.03;13.83;;;12.00;99.90;;;;;;5006539;28;20640;-72
2021/10/31 04:13:09;;;;;;;18.80;13.40;;;12.00;99.90;;;;;;5004968;28;20245;-72
2021/10/31 04:15:35;;;;;;;13.53;12.10;;;11.90;99.90;;;;;;4999063;28;20194;-72
2021/10/31 04:18:01;;;;;;;17.70;13.20;;;11.90;99.90;;;;;;5005477;28;20273;-72
2021/10/31 04:20:26;;;;;;;18.00;12.63;;;11.80;99.90;;;;;;5005819;28;20453;-72
2021/10/31 04:22:52;;;;;;;17.43;12.77;;;11.80;99.90;;;;;;5009941;28;20179;-73
2021/10/31 04:25:18;;;;;;;18.53;13.03;;;11.70;99.90;;;;;;5009625;28;20253;-72
2021/10/31 04:27:44;;;;;;;14.30;12.30;;;11.70;99.90;;;;;;5006641;28;20202;-72
2021/10/31 04:30:10;;;;;;;14.93;12.60;;;11.60;99.90;;;;;;5002685;28;20186;-72
2021/10/31 04:32:36;;;;;;;13.83;11.57;;;11.60;99.90;;;;;;5006163;28;20493;-72
2021/10/31 04:35:02;;;;;;;18.27;12.97;;;11.50;99.90;;;;;;5003527;28;20939;-72
2021/10/31 04:37:28;;;;;;;14.43;11.60;;;11.50;99.90;;;;;;5008349;28;20527;-72
2021/10/31 04:39:56;;;;;;;12.80;11.47;;;11.40;99.90;;;;;;5004886;28;20454;-72
2021/10/31 04:42:28;;;;;;;13.30;10.53;;;11.40;99.90;;;;;;5006795;28;20435;-72
2021/10/31 04:44:54;;;;;;;16.20;11.60;;;11.30;99.90;;;;;;5006936;28;20421;-72
2021/10/31 04:47:19;;;;;;;11.53;10.33;;;11.30;99.90;;;;;;5001387;28;20440;-72
2021/10/31 04:49:46;;;;;;;14.30;11.07;;;11.30;99.90;;;;;;5006376;28;20253;-72
2021/10/31 04:52:11;;;;;;;14.53;10.97;;;11.20;99.90;;;;;;5011108;28;20587;-72
2021/10/31 04:54:37;;;;;;;15.10;11.67;;;11.20;99.90;;;;;;5005682;28;20465;-72
2021/10/31 04:57:03;;;;;;;14.47;11.50;;;11.10;99.90;;;;;;5007104;28;20270;-72
2021/10/31 04:59:29;;;;;;;16.67;12.03;;;11.10;99.90;;;;;;5005840;28;20171;-72
2021/10/31 05:01:54;;;;;;;12.23;10.50;;;11.10;99.90;;;;;;5007087;28;21010;-72
2021/10/31 05:04:21;;;;;;;13.40;12.00;;;11.00;99.90;;;;;;5000460;28;20252;-72
2021/10/31 05:06:47;;;;;;;18.00;12.07;;;11.00;99.90;;;;;;5006895;28;20263;-72
2021/10/31 05:09:13;;;;;;;16.37;12.17;;;11.00;99.90;;;;;;5000134;28;20780;-72
2021/10/31 05:11:38;;;;;;;15.30;13.70;;;10.90;99.90;;;;;;5006440;28;20186;-72
2021/10/31 05:14:04;;;;;;;12.47;11.00;;;10.90;99.90;;;;;;5002067;28;20174;-72
2021/10/31 05:16:29;;;;;;;15.73;13.13;;;10.90;99.90;;;;;;5005576;28;20265;-72
2021/10/31 05:18:56;;;;;;;15.03;11.03;;;10.90;99.90;;;;;;5001954;28;20183;-72
2021/10/31 05:21:22;;;;;;;17.77;12.70;;;10.90;99.90;;;;;;5005165;28;20205;-72
2021/10/31 05:23:48;;;;;;;13.17;11.67;;;10.90;99.90;;;;;;5006178;28;20429;-72
2021/10/31 05:26:14;;;;;;;15.20;12.00;;;10.90;99.90;;;;;;5006284;28;20210;-72
2021/10/31 05:28:39;;;;;;;13.50;10.93;;;10.90;99.90;;;;;;5008353;28;20668;-72
2021/10/31 05:31:05;;;;;;;13.10;11.10;;;10.90;99.90;;;;;;5004385;28;20540;-72
2021/10/31 05:33:30;;;;;;;19.33;13.07;;;10.90;99.90;;;;;;5002254;28;20174;-72
2021/10/31 05:35:56;;;;;;;17.67;12.70;;;11.00;99.90;;;;;;5008532;28;20616;-72
2021/10/31 05:38:22;;;;;;;18.73;13.43;;;11.00;99.90;;;;;;5007386;28;20222;-72
2021/10/31 05:40:49;;;;;;;15.30;12.53;;;10.90;99.90;;;;;;5006970;28;20198;-72
2021/10/31 05:43:15;;;;;;;15.50;12.30;;;10.90;99.90;;;;;;5007669;28;20213;-72
2021/10/31 05:45:41;;;;;;;15.20;10.43;;;10.90;99.90;;;;;;5009521;28;20918;-72
2021/10/31 05:48:07;;;;;;;12.30;10.43;;;10.90;99.90;;;;;;5011014;28;20440;-72
2021/10/31 05:50:33;;;;;;;14.33;10.90;;;10.90;99.90;;;;;;5003479;28;20209;-72
2021/10/31 05:52:58;;;;;;;15.90;11.90;;;10.80;99.90;;;;;;5011986;28;20182;-72
2021/10/31 05:55:24;;;;;;;16.00;10.50;;;10.80;99.90;;;;;;5007054;28;21000;-72
2021/10/31 05:57:50;;;;;;;15.10;11.63;;;10.80;99.90;;;;;;5010057;28;20189;-72
2021/10/31 06:00:17;;;;;;;12.00;10.20;;;10.70;99.90;;;;;;5009239;28;20194;-72
2021/10/31 06:02:46;;;;;;;12.20;10.90;;;10.70;99.90;;;;;;5002785;28;20171;-72
2021/10/31 06:05:13;;;;;;;13.97;11.17;;;10.60;99.90;;;;;;5011254;28;20487;-72
2021/10/31 06:07:42;;;;;;;13.10;10.30;;;10.60;99.90;;;;;;5010181;28;20417;-72
2021/10/31 06:10:09;;;;;;;11.00;9.63;;;10.60;99.90;;;;;;5009650;28;20438;-72
2021/10/31 06:12:35;;;;;;;12.93;10.07;;;10.50;99.90;;;;;;5008427;28;20507;-72
2021/10/31 06:15:03;;;;;;;12.60;9.40;;;10.50;99.90;;;;;;5010857;28;20437;-72
2021/10/31 06:17:29;;;;;;;11.37;9.33;;;10.40;99.90;;;;;;5004449;28;20452;-72
2021/10/31 06:19:54;;;;;;;10.17;9.17;;;10.40;99.90;;;;;;5012404;28;20886;-72
2021/10/31 06:22:20;;;;;;;12.73;9.40;;;10.30;99.90;;;;;;5004793;28;20177;-72
2021/10/31 06:24:46;;;;;;;9.80;8.80;;;10.20;99.90;;;;;;5009417;28;20620;-72
2021/10/31 06:27:11;;;;;;;12.63;8.97;;;10.20;99.90;;;;;;5008824;28;20195;-72
2021/10/31 06:29:37;;;;;;;11.50;8.70;;;10.10;99.90;;;;;;5006921;28;20187;-72
2021/10/31 06:32:03;;;;;;;12.93;10.47;;;10.00;99.90;;;;;;5011158;28;20269;-72
2021/10/31 06:34:28;;;;;;;10.93;8.50;;;10.00;99.90;;;;;;5011962;28;20186;-72
2021/10/31 06:36:54;;;;;;;11.00;8.80;;;9.90;99.90;;;;;;5008867;28;20844;-72
2021/10/31 06:39:20;;;;;;;9.07;7.90;;;9.90;99.90;;;;;;5010981;28;20671;-72
2021/10/31 06:41:45;;;;;;;11.60;7.93;;;9.80;99.90;;;;;;5011616;28;20507;-72
2021/10/31 06:44:11;;;;;;;10.30;8.10;;;9.80;99.90;;;;;;5009941;28;20175;-72
2021/10/31 06:46:37;;;;;;;9.20;8.17;;;9.80;99.90;;;;;;5006438;28;20187;-72
2021/10/31 06:49:04;;;;;;;9.23;8.33;;;9.70;99.90;;;;;;5005147;28;20174;-72
2021/10/31 06:51:30;;;;;;;8.93;8.10;;;9.70;99.90;;;;;;5009380;28;20256;-72
2021/10/31 06:53:55;;;;;;;10.83;8.47;;;9.70;99.90;;;;;;5001948;28;20439;-72
2021/10/31 06:56:24;;;;;;;10.23;9.10;;;9.70;99.90;;;;;;5007207;28;20182;-72
2021/10/31 06:58:50;;;;;;;9.27;8.37;;;9.70;99.90;;;;;;5006446;28;20179;-71
2021/10/31 07:01:16;;;;;;;10.30;8.50;;;9.70;99.90;;;;;;5008302;28;20935;-72
2021/10/31 07:03:41;;;;;;;10.90;8.30;;;9.70;99.90;;;;;;5005131;28;20194;-72
2021/10/31 07:06:09;;;;;;;9.10;7.33;;;9.70;99.90;;;;;;5010271;28;20509;-72
2021/10/31 07:08:34;;;;;;;8.83;7.80;;;9.70;99.90;;;;;;5008441;28;20178;-72
2021/10/31 07:11:00;;;;;;;11.43;8.53;;;9.70;99.90;;;;;;5013308;28;20433;-72
2021/10/31 07:13:26;;;;;;;9.60;7.90;;;9.70;99.90;;;;;;5005219;28;20182;-73
2021/10/31 07:15:52;;;;;;;10.73;9.00;;;9.70;99.90;;;;;;5003072;28;20992;-72
2021/10/31 07:18:17;;;;;;;13.40;9.30;;;9.70;99.90;;;;;;4997916;28;20215;-72
2021/10/31 07:20:43;;;;;;;11.90;8.70;;;9.70;99.90;;;;;;4999424;28;20206;-72
2021/10/31 07:23:09;;;;;;;10.37;8.73;;;9.70;99.90;;;;;;5000110;28;20190;-72
2021/10/31 07:25:34;;;;;;;10.93;8.03;;;9.70;99.90;;;;;;5004912;28;20189;-72
2021/10/31 07:28:00;;;;;;;13.13;8.90;;;9.70;99.90;;;;;;5004067;28;20624;-72
2021/10/31 07:30:26;;;;;;;10.43;9.30;;;9.70;99.90;;;;;;5006734;28;20186;-72
2021/10/31 07:32:59;;;;;;;17.93;9.70;;;9.70;99.90;;;;;;5007488;28;20183;-72
2021/10/31 07:35:26;;;;;;;11.90;9.60;;;9.70;99.90;;;;;;5003519;28;20187;-71
2021/10/31 07:37:51;;;;;;;13.40;10.10;;;9.80;99.90;;;;;;5008316;28;20516;-71
2021/10/31 07:40:17;;;;;;;13.17;10.63;;;9.80;99.90;;;;;;5004003;28;20564;-73
2021/10/31 07:42:43;;;;;;;14.00;10.97;;;9.90;99.90;;;;;;5005567;28;20178;-72
2021/10/31 07:45:09;;;;;;;10.37;9.37;;;10.10;99.90;;;;;;5008902;28;20433;-72
2021/10/31 07:47:35;;;;;;;9.90;8.90;;;10.10;99.90;;;;;;5006107;28;20197;-72
2021/10/31 07:50:01;;;;;;;11.13;9.70;;;10.20;99.90;;;;;;5009199;28;20922;-72
2021/10/31 07:52:27;;;;;;;11.27;9.33;;;10.30;99.90;;;;;;5006371;28;20659;-72
2021/10/31 07:54:52;;;;;;;10.30;8.80;;;10.30;99.90;;;;;;5004815;28;20266;-72
2021/10/31 07:57:21;;;;;;;11.40;10.20;;;10.40;99.90;;;;;;5002140;28;20441;-72
2021/10/31 07:59:46;;;;;;;12.57;9.67;;;10.50;99.90;;;;;;4997709;28;20515;-72
2021/10/31 08:02:12;;;;;;;12.53;10.10;;;10.60;99.90;;;;;;5008376;28;20429;-72
2021/10/31 08:04:38;;;;;;;12.67;10.20;;;10.70;99.90;;;;;;5007706;28;20179;-72
2021/10/31 08:07:04;;;;;;;11.50;9.30;;;10.70;99.90;;;;;;5009851;28;20929;-72
2021/10/31 08:09:29;;;;;;;15.80;11.83;;;10.80;99.90;;;;;;5009672;28;20261;-72
2021/10/31 08:11:55;;;;;;;14.93;11.00;;;10.90;99.90;;;;;;5004693;28;20192;-72
2021/10/31 08:14:21;;;;;;;13.10;10.00;;;11.00;99.90;;;;;;5005151;28;20190;-72
2021/10/31 08:16:46;;;;;;;11.60;10.17;;;11.00;99.90;;;;;;5008854;28;20194;-72
2021/10/31 08:19:12;;;;;;;12.20;10.10;;;11.00;99.90;;;;;;5009310;28;20193;-72
2021/10/31 08:21:39;;;;;;;12.00;9.80;;;11.00;99.90;;;;;;5007813;28;20202;-72
2021/10/31 08:24:06;;;;;;;10.73;9.67;;;11.00;99.90;;;;;;4996462;28;20711;-72
2021/10/31 08:26:32;;;;;;;14.63;10.33;;;11.00;99.90;;;;;;5004276;28;20527;-72
2021/10/31 08:29:01;;;;;;;13.10;11.10;;;11.00;99.90;;;;;;4995658;28;20452;-72
2021/10/31 08:31:35;;;;;;;11.47;9.77;;;11.10;99.90;;;;;;4998394;28;20953;-72
2021/10/31 08:34:01;;;;;;;17.57;10.80;;;11.10;99.90;;;;;;5000659;28;20417;-72
2021/10/31 08:36:29;;;;;;;13.83;11.90;;;11.10;99.90;;;;;;5008465;28;20998;-72
2021/10/31 08:38:55;;;;;;;14.30;11.37;;;11.10;99.90;;;;;;5007245;28;20434;-72
2021/10/31 08:41:22;;;;;;;12.77;9.50;;;11.10;99.90;;;;;;5004625;28;20462;-72
2021/10/31 08:43:49;;;;;;;13.33;10.67;;;11.10;99.90;;;;;;5001262;28;20171;-72
2021/10/31 08:46:15;;;;;;;12.23;10.03;;;11.10;99.90;;;;;;5001043;28;20461;-72
2021/10/31 08:48:42;;;;;;;15.43;11.10;;;11.10;99.90;;;;;;5008421;28;20429;-72
2021/10/31 08:51:08;;;;;;;12.40;10.17;;;11.10;99.90;;;;;;5004942;28;20438;-72
2021/10/31 08:53:34;;;;;;;13.00;10.00;;;11.20;99.90;;;;;;5003339;28;20469;-72
2021/10/31 08:56:01;;;;;;;15.87;12.03;;;11.20;99.90;;;;;;5008896;28;20448;-72
2021/10/31 08:58:28;;;;;;;13.70;10.90;;;11.30;99.90;;;;;;4999301;28;20434;-72
2021/10/31 09:00:54;;;;;;;13.40;10.80;;;11.40;99.90;;;;;;4993042;28;20472;-73
2021/10/31 09:03:20;;;;;;;16.17;11.93;;;11.50;99.90;;;;;;4994397;28;20513;-72
2021/10/31 09:05:45;;;;;;;16.20;11.70;;;11.60;99.90;;;;;;4998535;28;20567;-73
2021/10/31 09:08:11;;;;;;;16.00;12.03;;;11.80;99.90;;;;;;4993963;28;20472;-73
2021/10/31 09:10:38;;;;;;;14.37;10.97;;;12.00;99.90;;;;;;5000419;28;20265;-73
2021/10/31 09:13:04;;;;;;;14.40;11.23;;;12.00;99.90;;;;;;4998256;28;20241;-73
2021/10/31 09:15:31;;;;;;;13.93;11.80;;;12.20;99.90;;;;;;4992963;28;20442;-73
2021/10/31 09:18:01;;;;;;;13.20;10.87;;;12.30;99.90;;;;;;4999919;28;20473;-73
2021/10/31 09:20:27;;;;;;;13.20;9.40;;;12.40;99.90;;;;;;4990872;28;20473;-72
2021/10/31 09:22:54;;;;;;;10.90;9.80;;;12.50;99.90;;;;;;4991576;28;21511;-72
2021/10/31 09:25:21;;;;;;;13.43;11.30;;;12.60;99.90;;;;;;5001817;28;20441;-72
2021/10/31 09:27:47;;;;;;;15.40;9.73;;;12.60;99.90;;;;;;5011517;28;20429;-72
2021/10/31 09:30:13;;;;;;;11.80;9.80;;;12.70;99.90;;;;;;4992218;28;20422;-73
2021/10/31 09:32:45;;;;;;;10.63;9.00;;;12.60;99.90;;;;;;4991254;28;20186;-73
2021/10/31 09:35:24;;;;;;;11.40;9.20;;;12.60;99.90;;;;;;4987863;28;20433;-72
2021/10/31 09:37:56;;;;;;;12.97;9.67;;;12.70;99.90;;;;;;4996284;28;20910;-72
2021/10/31 09:40:23;;;;;;;9.83;8.83;;;12.70;99.90;;;;;;4998534;28;20492;-72
2021/10/31 09:42:51;;;;;;;10.30;8.30;;;12.80;99.90;;;;;;4999792;28;20433;-72
2021/10/31 09:45:21;;;;;;;9.60;8.60;;;12.70;99.90;;;;;;5000129;28;20453;-72
2021/10/31 09:47:58;;;;;;;10.93;9.20;;;12.70;99.90;;;;;;4993428;28;20529;-72
2021/10/31 09:50:25;;;;;;;10.70;8.93;;;12.80;99.90;;;;;;5002292;28;20516;-73
2021/10/31 09:52:52;;;;;;;7.80;7.00;;;12.80;99.90;;;;;;5000149;28;20438;-73
2021/10/31 09:55:17;;;;;;;7.30;6.50;;;12.90;99.90;;;;;;5002791;28;20429;-72
2021/10/31 09:57:43;;;;;;;8.13;7.30;;;12.90;99.90;;;;;;5003289;28;20510;-72
2021/10/31 10:00:10;;;;;;;8.70;7.20;;;13.00;99.90;;;;;;5004337;28;20305;-72
2021/10/31 10:02:49;;;;;;;8.00;7.20;;;13.10;99.90;;;;;;4992814;28;20183;-73
2021/10/31 10:05:24;;;;;;;9.17;7.87;;;13.30;99.90;;;;;;5002654;28;20771;-73
2021/10/31 10:08:08;;;;;;;11.93;7.07;;;13.40;99.90;;;;;;5000683;28;20424;-73
2021/10/31 10:11:15;;;;;;;7.87;5.87;;;13.60;99.90;;;;;;4999773;28;20777;-72
2021/10/31 10:13:41;;;;;;;6.43;5.83;;;13.70;99.90;;;;;;4996546;28;20433;-73
2021/10/31 10:16:12;;;;;;;7.57;6.87;;;13.80;99.90;;;;;;4996799;28;20464;-73
2021/10/31 10:18:38;;;;;;;6.80;6.17;;;13.80;99.90;;;;;;4997608;28;20182;-73
2021/10/31 10:21:25;;;;;;;6.63;5.77;;;13.90;99.90;;;;;;5000047;28;20463;-73
2021/10/31 10:24:09;;;;;;;6.97;4.90;;;13.90;99.90;;;;;;4999819;28;20179;-73
2021/10/31 10:26:43;;;;;;;5.90;5.37;;;14.10;99.90;;;;;;4998965;28;20429;-73
2021/10/31 10:29:09;;;;;;;6.20;5.60;;;14.10;99.90;;;;;;5000611;28;20517;-73
2021/10/31 10:31:35;;;;;;;4.87;4.40;;;14.20;99.90;;;;;;5002069;28;20440;-72
2021/10/31 10:34:01;;;;;;;6.03;5.30;;;14.20;99.90;;;;;;5003914;28;20187;-73
2021/10/31 10:36:27;;;;;;;9.00;5.10;;;14.30;99.90;;;;;;4996276;28;20529;-73
2021/10/31 10:39:06;;;;;;;5.63;5.00;;;14.30;99.90;;;;;;4995555;28;20521;-73
2021/10/31 10:41:39;;;;;;;5.20;4.10;;;14.50;99.90;;;;;;5005172;28;20225;-73
2021/10/31 10:44:20;;;;;;;4.27;3.97;;;14.60;99.90;;;;;;5004407;28;20425;-72
2021/10/31 10:46:49;;;;;;;4.43;4.03;;;14.70;99.90;;;;;;5006449;28;20433;-73
2021/10/31 10:49:17;;;;;;;6.80;4.70;;;14.80;99.90;;;;;;5000336;28;20436;-72
2021/10/31 10:52:23;;;;;;;4.10;3.80;;;14.90;99.90;;;;;;5000340;28;20438;-73
2021/10/31 10:55:10;;;;;;;8.33;4.77;;;15.00;99.90;;;;;;5004555;28;20481;-75
2021/10/31 10:57:39;;;;;;;4.53;4.13;;;15.10;99.90;;;;;;5000876;28;20425;-75
2021/10/31 11:00:34;;;;;;;5.93;4.40;;;15.10;99.90;;;;;;5001734;28;20797;-75
2021/10/31 11:03:05;;;;;;;5.00;4.60;;;15.20;99.90;;;;;;5006833;28;20907;-75
2021/10/31 11:05:39;;;;;;;3.43;3.20;;;15.20;99.90;;;;;;5006712;28;20426;-75
2021/10/31 11:08:10;;;;;;;4.17;3.87;;;15.20;99.90;;;;;;4996538;28;20440;-74
2021/10/31 11:10:36;;;;;;;4.13;3.83;;;15.40;99.90;;;;;;4996690;28;20461;-74
2021/10/31 11:13:05;;;;;;;4.20;3.90;;;15.50;99.90;;;;;;5009203;28;20596;-74
2021/10/31 11:15:33;;;;;;;4.77;4.37;;;15.70;99.90;;;;;;5003567;28;20429;-74
2021/10/31 11:18:02;;;;;;;4.33;3.80;;;15.70;99.90;;;;;;4997883;28;20442;-74
2021/10/31 11:20:32;;;;;;;6.17;4.70;;;15.80;99.90;;;;;;5003230;28;20556;-74
2021/10/31 11:23:02;;;;;;;4.50;4.07;;;15.80;99.90;;;;;;5004266;28;20460;-74
2021/10/31 11:25:30;;;;;;;4.97;4.60;;;15.80;99.90;;;;;;5008040;28;20828;-74
2021/10/31 11:27:58;;;;;;;4.47;4.07;;;15.80;99.90;;;;;;5008124;28;20911;-74
2021/10/31 11:30:25;;;;;;;5.27;3.90;;;15.80;99.90;;;;;;5001580;28;20778;-74
2021/10/31 11:32:51;;;;;;;4.30;4.00;;;15.90;99.90;;;;;;5005411;28;20434;-74
2021/10/31 11:35:18;;;;;;;5.00;4.50;;;15.90;99.90;;;;;;4998561;28;20882;-74
2021/10/31 11:37:54;;;;;;;4.20;3.90;;;15.90;99.90;;;;;;4994403;28;20464;-74
2021/10/31 11:40:27;;;;;;;6.00;5.40;;;15.90;99.90;;;;;;5001409;28;20457;-75
2021/10/31 11:42:53;;;;;;;5.10;4.70;;;15.90;99.90;;;;;;4997925;28;20423;-75
2021/10/31 11:45:23;;;;;;;4.73;4.43;;;15.70;99.90;;;;;;5010576;28;20434;-75
2021/10/31 11:48:08;;;;;;;5.63;5.13;;;15.60;99.90;;;;;;5020158;28;20425;-75
2021/10/31 11:50:34;;;;;;;4.70;4.30;;;15.60;99.90;;;;;;5008819;28;20433;-75
2021/10/31 11:53:01;;;;;;;5.23;4.23;;;15.60;99.90;;;;;;5006060;28;20443;-75
2021/10/31 11:55:29;;;;;;;5.93;5.10;;;15.70;99.90;;;;;;5005179;28;20439;-75
2021/10/31 11:58:07;;;;;;;5.10;4.70;;;15.80;99.90;;;;;;5002720;28;20463;-75
2021/10/31 12:00:34;;;;;;;3.90;3.60;;;16.00;99.90;;;;;;4994021;28;20465;-75
2021/10/31 12:03:04;;;;;;;4.40;4.10;;;16.10;99.90;;;;;;5003049;28;20429;-75
2021/10/31 12:05:39;;;;;;;4.57;4.27;;;16.20;99.90;;;;;;4995391;28;20413;-75
2021/10/31 12:08:09;;;;;;;5.27;4.87;;;16.10;99.90;;;;;;5000144;28;20421;-75
2021/10/31 12:10:50;;;;;;;5.27;4.40;;;16.10;99.90;;;;;;4997205;28;20956;-75
2021/10/31 12:13:21;;;;;;;4.73;4.40;;;15.90;99.90;;;;;;5003733;28;20497;-75
2021/10/31 12:16:03;;;;;;;5.10;4.53;;;15.70;99.90;;;;;;5012005;28;20421;-74
2021/10/31 12:18:47;;;;;;;4.80;4.50;;;15.60;99.90;;;;;;5000116;28;20971;-75
2021/10/31 12:21:21;;;;;;;5.10;4.70;;;15.50;99.90;;;;;;4987409;28;20458;-75
2021/10/31 12:23:56;;;;;;;5.00;4.30;;;15.40;99.90;;;;;;5005108;28;20425;-72
2021/10/31 12:26:23;;;;;;;4.27;4.07;;;15.50;99.90;;;;;;5009134;28;20426;-72
2021/10/31 12:28:49;;;;;;;5.57;5.17;;;15.40;99.90;;;;;;5007450;28;20787;-72
2021/10/31 12:31:32;;;;;;;4.63;4.20;;;15.50;99.90;;;;;;5011640;28;20494;-74
2021/10/31 12:34:16;;;;;;;4.50;4.20;;;15.60;99.90;;;;;;5006542;28;20250;-74
2021/10/31 12:36:51;;;;;;;6.33;5.10;;;15.80;99.90;;;;;;5014608;28;20422;-74
2021/10/31 12:39:31;;;;;;;4.30;4.00;;;16.00;99.90;;;;;;5017254;28;20464;-74
2021/10/31 12:42:17;;;;;;;4.87;4.47;;;16.00;99.90;;;;;;5000719;28;20470;-74
2021/10/31 12:44:45;;;;;;;3.77;3.57;;;16.10;99.90;;;;;;5008340;28;20509;-75
2021/10/31 12:47:15;;;;;;;3.73;3.53;;;16.20;99.90;;;;;;5003094;28;20469;-75